sensor_id;sensor_type;location;lat;lon;timestamp;P1;durP1;ratioP1;P2;durP2;ratioP2
15116;SDS011;7659;51.038;13.786;2022-08-19T00:02:18;0.20;;;0.20;;
15116;SDS011;7659;51.038;13.786;2022-08-19T00:04:44;0.30;;;0.30;;
15116;SDS011;7659;51.038;13.786;2022-08-19T00:07:12;0.20;;;0.20;;
15116;SDS011;7659;51.038;13.786;2022-08-19T00:09:37;0.30;;;0.30;;
15116;SDS011;7659;51.038;13.786;2022-08-19T00:12:03;0.20;;;0.20;;
15116;SDS011;7659;51.038;13.786;2022-08-19T00:14:28;0.20;;;0.20;;
15116;SDS011;7659;51.038;13.786;2022-08-19T00:16:56;0.20;;;0.20;;
15116;SDS011;7659;51.038;13.786;2022-08-19T00:19:22;0.20;;;0.20;;
15116;SDS011;7659;51.038;13.786;2022-08-19T00:21:48;0.20;;;0.20;;
15116;SDS011;7659;51.038;13.786;2022-08-19T00:24:14;0.20;;;0.20;;
15116;SDS011;7659;51.038;13.786;2022-08-19T00:26:40;0.20;;;0.20;;
15116;SDS011;7659;51.038;13.786;2022-08-19T00:29:07;0.30;;;0.30;;
15116;SDS011;7659;51.038;13.786;2022-08-19T00:31:33;0.20;;;0.20;;
15116;SDS011;7659;51.038;13.786;2022-08-19T00:33:58;0.30;;;0.30;;
15116;SDS011;7659;51.038;13.786;2022-08-19T00:36:24;0.30;;;0.30;;
15116;SDS011;7659;51.038;13.786;2022-08-19T00:38:50;0.20;;;0.20;;
15116;SDS011;7659;51.038;13.786;2022-08-19T00:41:19;0.20;;;0.20;;
15116;SDS011;7659;51.038;13.786;2022-08-19T00:46:31;0.30;;;0.30;;
15116;SDS011;7659;51.038;13.786;2022-08-19T00:48:58;0.30;;;0.30;;
15116;SDS011;7659;51.038;13.786;2022-08-19T00:51:28;0.20;;;0.20;;
15116;SDS011;7659;51.038;13.786;2022-08-19T00:53:55;0.20;;;0.20;;
15116;SDS011;7659;51.038;13.786;2022-08-19T00:56:21;0.20;;;0.20;;
15116;SDS011;7659;51.038;13.786;2022-08-19T00:58:47;0.20;;;0.20;;
15116;SDS011;7659;51.038;13.786;2022-08-19T01:01:13;0.20;;;0.20;;
15116;SDS011;7659;51.038;13.786;2022-08-19T01:03:39;0.20;;;0.20;;
15116;SDS011;7659;51.038;13.786;2022-08-19T01:06:04;0.30;;;0.30;;
15116;SDS011;7659;51.038;13.786;2022-08-19T01:08:30;0.20;;;0.20;;
15116;SDS011;7659;51.038;13.786;2022-08-19T01:10:56;0.20;;;0.20;;
15116;SDS011;7659;51.038;13.786;2022-08-19T01:13:24;0.30;;;0.30;;
15116;SDS011;7659;51.038;13.786;2022-08-19T01:15:57;0.20;;;0.20;;
15116;SDS011;7659;51.038;13.786;2022-08-19T01:18:24;2.33;;;2.22;;
15116;SDS011;7659;51.038;13.786;2022-08-19T01:20:50;4.00;;;3.80;;
15116;SDS011;7659;51.038;13.786;2022-08-19T01:23:16;6.18;;;5.88;;
15116;SDS011;7659;51.038;13.786;2022-08-19T01:25:49;3.55;;;3.35;;
15116;SDS011;7659;51.038;13.786;2022-08-19T01:28:23;3.60;;;3.40;;
15116;SDS011;7659;51.038;13.786;2022-08-19T01:30:48;5.10;;;4.90;;
15116;SDS011;7659;51.038;13.786;2022-08-19T01:33:14;3.80;;;3.60;;
15116;SDS011;7659;51.038;13.786;2022-08-19T01:35:41;3.67;;;3.47;;
15116;SDS011;7659;51.038;13.786;2022-08-19T01:38:08;4.20;;;4.00;;
15116;SDS011;7659;51.038;13.786;2022-08-19T01:40:36;3.65;;;3.45;;
15116;SDS011;7659;51.038;13.786;2022-08-19T01:43:02;6.10;;;5.80;;
15116;SDS011;7659;51.038;13.786;2022-08-19T01:45:29;8.20;;;7.90;;
15116;SDS011;7659;51.038;13.786;2022-08-19T01:47:55;4.85;;;4.65;;
15116;SDS011;7659;51.038;13.786;2022-08-19T01:50:21;6.30;;;6.00;;
15116;SDS011;7659;51.038;13.786;2022-08-19T01:52:47;5.50;;;5.28;;
15116;SDS011;7659;51.038;13.786;2022-08-19T01:55:14;3.58;;;3.38;;
15116;SDS011;7659;51.038;13.786;2022-08-19T01:57:41;3.90;;;3.70;;
15116;SDS011;7659;51.038;13.786;2022-08-19T02:00:09;2.30;;;2.20;;
15116;SDS011;7659;51.038;13.786;2022-08-19T02:02:38;1.05;;;1.05;;
15116;SDS011;7659;51.038;13.786;2022-08-19T02:05:04;0.80;;;0.80;;
15116;SDS011;7659;51.038;13.786;2022-08-19T02:07:31;0.30;;;0.30;;
15116;SDS011;7659;51.038;13.786;2022-08-19T02:09:57;7.72;;;7.43;;
15116;SDS011;7659;51.038;13.786;2022-08-19T02:12:23;0.20;;;0.20;;
15116;SDS011;7659;51.038;13.786;2022-08-19T02:14:49;2.50;;;2.40;;
15116;SDS011;7659;51.038;13.786;2022-08-19T02:17:14;10.13;;;9.73;;
15116;SDS011;7659;51.038;13.786;2022-08-19T02:19:39;10.95;;;10.55;;
15116;SDS011;7659;51.038;13.786;2022-08-19T02:22:05;11.00;;;10.60;;
15116;SDS011;7659;51.038;13.786;2022-08-19T02:24:31;10.70;;;10.30;;
15116;SDS011;7659;51.038;13.786;2022-08-19T02:26:57;10.55;;;10.15;;
15116;SDS011;7659;51.038;13.786;2022-08-19T02:29:24;10.02;;;9.63;;
15116;SDS011;7659;51.038;13.786;2022-08-19T02:31:49;10.73;;;10.32;;
15116;SDS011;7659;51.038;13.786;2022-08-19T02:34:16;11.55;;;11.15;;
15116;SDS011;7659;51.038;13.786;2022-08-19T02:36:41;11.55;;;11.15;;
15116;SDS011;7659;51.038;13.786;2022-08-19T02:39:07;11.88;;;11.45;;
15116;SDS011;7659;51.038;13.786;2022-08-19T02:41:32;0.80;;;0.80;;
15116;SDS011;7659;51.038;13.786;2022-08-19T02:43:59;0.20;;;0.20;;
15116;SDS011;7659;51.038;13.786;2022-08-19T02:46:27;0.20;;;0.20;;
15116;SDS011;7659;51.038;13.786;2022-08-19T02:48:53;0.20;;;0.20;;
15116;SDS011;7659;51.038;13.786;2022-08-19T02:51:24;0.20;;;0.20;;
15116;SDS011;7659;51.038;13.786;2022-08-19T02:53:50;0.20;;;0.20;;
15116;SDS011;7659;51.038;13.786;2022-08-19T02:56:15;0.20;;;0.20;;
15116;SDS011;7659;51.038;13.786;2022-08-19T02:58:41;1.27;;;1.27;;
15116;SDS011;7659;51.038;13.786;2022-08-19T03:01:08;5.45;;;5.25;;
15116;SDS011;7659;51.038;13.786;2022-08-19T03:03:35;11.48;;;11.07;;
15116;SDS011;7659;51.038;13.786;2022-08-19T03:06:08;12.07;;;11.57;;
15116;SDS011;7659;51.038;13.786;2022-08-19T03:08:34;12.50;;;12.00;;
15116;SDS011;7659;51.038;13.786;2022-08-19T03:10:59;12.43;;;11.93;;
15116;SDS011;7659;51.038;13.786;2022-08-19T03:13:25;12.10;;;11.63;;
15116;SDS011;7659;51.038;13.786;2022-08-19T03:15:50;12.02;;;11.60;;
15116;SDS011;7659;51.038;13.786;2022-08-19T03:18:16;11.77;;;11.38;;
15116;SDS011;7659;51.038;13.786;2022-08-19T03:20:47;12.80;;;12.30;;
15116;SDS011;7659;51.038;13.786;2022-08-19T03:23:13;11.88;;;11.48;;
15116;SDS011;7659;51.038;13.786;2022-08-19T03:25:43;12.60;;;12.10;;
15116;SDS011;7659;51.038;13.786;2022-08-19T03:28:10;11.50;;;11.10;;
15116;SDS011;7659;51.038;13.786;2022-08-19T03:30:37;11.77;;;11.38;;
15116;SDS011;7659;51.038;13.786;2022-08-19T03:33:02;12.80;;;12.30;;
15116;SDS011;7659;51.038;13.786;2022-08-19T03:35:28;12.80;;;12.30;;
15116;SDS011;7659;51.038;13.786;2022-08-19T03:37:53;13.30;;;12.80;;
15116;SDS011;7659;51.038;13.786;2022-08-19T03:40:19;13.10;;;12.60;;
15116;SDS011;7659;51.038;13.786;2022-08-19T03:42:44;12.75;;;12.25;;
15116;SDS011;7659;51.038;13.786;2022-08-19T03:45:11;12.93;;;12.43;;
15116;SDS011;7659;51.038;13.786;2022-08-19T03:47:37;13.55;;;13.05;;
15116;SDS011;7659;51.038;13.786;2022-08-19T03:50:03;13.68;;;13.18;;
15116;SDS011;7659;51.038;13.786;2022-08-19T03:52:28;13.23;;;12.73;;
15116;SDS011;7659;51.038;13.786;2022-08-19T03:54:54;12.88;;;12.38;;
15116;SDS011;7659;51.038;13.786;2022-08-19T03:57:19;13.27;;;12.77;;
15116;SDS011;7659;51.038;13.786;2022-08-19T03:59:45;13.18;;;12.68;;
15116;SDS011;7659;51.038;13.786;2022-08-19T04:02:11;13.02;;;12.52;;
15116;SDS011;7659;51.038;13.786;2022-08-19T04:04:38;13.70;;;13.20;;
15116;SDS011;7659;51.038;13.786;2022-08-19T04:07:04;13.65;;;13.15;;
15116;SDS011;7659;51.038;13.786;2022-08-19T04:09:29;14.20;;;13.70;;
15116;SDS011;7659;51.038;13.786;2022-08-19T04:11:55;14.40;;;13.90;;
15116;SDS011;7659;51.038;13.786;2022-08-19T04:14:23;14.18;;;13.68;;
15116;SDS011;7659;51.038;13.786;2022-08-19T04:16:49;13.50;;;13.00;;
15116;SDS011;7659;51.038;13.786;2022-08-19T04:19:16;13.10;;;12.60;;
15116;SDS011;7659;51.038;13.786;2022-08-19T04:21:43;12.10;;;11.60;;
15116;SDS011;7659;51.038;13.786;2022-08-19T04:24:09;12.45;;;11.95;;
15116;SDS011;7659;51.038;13.786;2022-08-19T04:26:35;12.43;;;11.93;;
15116;SDS011;7659;51.038;13.786;2022-08-19T04:29:03;12.65;;;12.15;;
15116;SDS011;7659;51.038;13.786;2022-08-19T04:31:29;11.50;;;11.10;;
15116;SDS011;7659;51.038;13.786;2022-08-19T04:33:56;11.07;;;10.68;;
15116;SDS011;7659;51.038;13.786;2022-08-19T04:36:23;11.52;;;11.13;;
15116;SDS011;7659;51.038;13.786;2022-08-19T04:38:50;11.55;;;11.15;;
15116;SDS011;7659;51.038;13.786;2022-08-19T04:41:15;11.05;;;10.65;;
15116;SDS011;7659;51.038;13.786;2022-08-19T04:44:16;11.50;;;11.10;;
15116;SDS011;7659;51.038;13.786;2022-08-19T04:46:43;10.35;;;9.95;;
15116;SDS011;7659;51.038;13.786;2022-08-19T04:49:09;12.20;;;11.70;;
15116;SDS011;7659;51.038;13.786;2022-08-19T04:51:35;11.77;;;11.38;;
15116;SDS011;7659;51.038;13.786;2022-08-19T04:54:00;11.38;;;10.98;;
15116;SDS011;7659;51.038;13.786;2022-08-19T04:56:26;11.63;;;11.23;;
15116;SDS011;7659;51.038;13.786;2022-08-19T04:58:53;11.75;;;11.35;;
15116;SDS011;7659;51.038;13.786;2022-08-19T05:01:26;12.45;;;11.95;;
15116;SDS011;7659;51.038;13.786;2022-08-19T05:03:53;11.82;;;11.43;;
15116;SDS011;7659;51.038;13.786;2022-08-19T05:06:19;12.38;;;11.88;;
15116;SDS011;7659;51.038;13.786;2022-08-19T05:08:45;11.70;;;11.30;;
15116;SDS011;7659;51.038;13.786;2022-08-19T05:11:15;12.18;;;11.68;;
15116;SDS011;7659;51.038;13.786;2022-08-19T05:13:42;12.40;;;11.90;;
15116;SDS011;7659;51.038;13.786;2022-08-19T05:16:08;12.02;;;11.55;;
15116;SDS011;7659;51.038;13.786;2022-08-19T05:18:35;11.25;;;10.85;;
15116;SDS011;7659;51.038;13.786;2022-08-19T05:21:19;12.48;;;11.98;;
15116;SDS011;7659;51.038;13.786;2022-08-19T05:24:04;12.18;;;11.68;;
15116;SDS011;7659;51.038;13.786;2022-08-19T05:26:37;12.77;;;12.27;;
15116;SDS011;7659;51.038;13.786;2022-08-19T05:29:03;11.52;;;11.13;;
15116;SDS011;7659;51.038;13.786;2022-08-19T05:31:28;12.52;;;12.02;;
15116;SDS011;7659;51.038;13.786;2022-08-19T05:33:54;12.85;;;12.35;;
15116;SDS011;7659;51.038;13.786;2022-08-19T05:36:21;11.85;;;11.45;;
15116;SDS011;7659;51.038;13.786;2022-08-19T05:38:46;12.40;;;11.90;;
15116;SDS011;7659;51.038;13.786;2022-08-19T05:41:13;13.00;;;12.50;;
15116;SDS011;7659;51.038;13.786;2022-08-19T05:43:39;13.00;;;12.50;;
15116;SDS011;7659;51.038;13.786;2022-08-19T05:46:05;11.60;;;11.20;;
15116;SDS011;7659;51.038;13.786;2022-08-19T05:48:31;11.90;;;11.45;;
15116;SDS011;7659;51.038;13.786;2022-08-19T05:50:57;11.43;;;11.02;;
15116;SDS011;7659;51.038;13.786;2022-08-19T05:53:24;12.75;;;12.25;;
15116;SDS011;7659;51.038;13.786;2022-08-19T05:55:50;11.52;;;11.13;;
15116;SDS011;7659;51.038;13.786;2022-08-19T05:58:15;11.60;;;11.20;;
15116;SDS011;7659;51.038;13.786;2022-08-19T06:00:42;11.88;;;11.40;;
15116;SDS011;7659;51.038;13.786;2022-08-19T06:03:07;11.45;;;11.05;;
15116;SDS011;7659;51.038;13.786;2022-08-19T06:05:33;11.18;;;10.77;;
15116;SDS011;7659;51.038;13.786;2022-08-19T06:07:58;11.73;;;11.32;;
15116;SDS011;7659;51.038;13.786;2022-08-19T06:10:24;11.35;;;10.95;;
15116;SDS011;7659;51.038;13.786;2022-08-19T06:12:51;11.05;;;10.65;;
15116;SDS011;7659;51.038;13.786;2022-08-19T06:15:16;10.93;;;10.52;;
15116;SDS011;7659;51.038;13.786;2022-08-19T06:17:42;11.02;;;10.63;;
15116;SDS011;7659;51.038;13.786;2022-08-19T06:20:10;11.30;;;10.90;;
15116;SDS011;7659;51.038;13.786;2022-08-19T06:22:37;10.52;;;10.13;;
15116;SDS011;7659;51.038;13.786;2022-08-19T06:25:03;11.40;;;11.00;;
15116;SDS011;7659;51.038;13.786;2022-08-19T06:27:29;10.93;;;10.52;;
15116;SDS011;7659;51.038;13.786;2022-08-19T06:29:56;12.10;;;11.60;;
15116;SDS011;7659;51.038;13.786;2022-08-19T06:32:21;11.60;;;11.20;;
15116;SDS011;7659;51.038;13.786;2022-08-19T06:34:47;11.65;;;11.25;;
15116;SDS011;7659;51.038;13.786;2022-08-19T06:37:12;11.75;;;11.35;;
15116;SDS011;7659;51.038;13.786;2022-08-19T06:39:39;11.52;;;11.13;;
15116;SDS011;7659;51.038;13.786;2022-08-19T06:42:05;11.10;;;10.70;;
15116;SDS011;7659;51.038;13.786;2022-08-19T06:44:34;10.88;;;10.48;;
15116;SDS011;7659;51.038;13.786;2022-08-19T06:47:03;11.27;;;10.88;;
15116;SDS011;7659;51.038;13.786;2022-08-19T06:49:28;12.00;;;11.50;;
15116;SDS011;7659;51.038;13.786;2022-08-19T06:51:56;11.50;;;11.10;;
15116;SDS011;7659;51.038;13.786;2022-08-19T06:54:22;11.27;;;10.88;;
15116;SDS011;7659;51.038;13.786;2022-08-19T06:56:48;11.60;;;11.20;;
15116;SDS011;7659;51.038;13.786;2022-08-19T06:59:15;12.30;;;11.80;;
15116;SDS011;7659;51.038;13.786;2022-08-19T07:01:43;11.70;;;11.30;;
15116;SDS011;7659;51.038;13.786;2022-08-19T07:04:11;11.90;;;11.50;;
15116;SDS011;7659;51.038;13.786;2022-08-19T07:06:36;11.45;;;11.05;;
15116;SDS011;7659;51.038;13.786;2022-08-19T07:09:03;12.40;;;11.90;;
15116;SDS011;7659;51.038;13.786;2022-08-19T07:11:28;12.90;;;12.40;;
15116;SDS011;7659;51.038;13.786;2022-08-19T07:13:54;12.70;;;12.20;;
15116;SDS011;7659;51.038;13.786;2022-08-19T07:16:20;12.55;;;12.05;;
15116;SDS011;7659;51.038;13.786;2022-08-19T07:18:46;13.23;;;12.73;;
15116;SDS011;7659;51.038;13.786;2022-08-19T07:21:16;13.10;;;12.60;;
15116;SDS011;7659;51.038;13.786;2022-08-19T07:23:42;12.30;;;11.80;;
15116;SDS011;7659;51.038;13.786;2022-08-19T07:26:13;12.98;;;12.48;;
15116;SDS011;7659;51.038;13.786;2022-08-19T07:28:39;12.82;;;12.32;;
15116;SDS011;7659;51.038;13.786;2022-08-19T07:31:06;12.63;;;12.13;;
15116;SDS011;7659;51.038;13.786;2022-08-19T07:33:31;13.70;;;13.20;;
15116;SDS011;7659;51.038;13.786;2022-08-19T07:35:58;13.45;;;12.95;;
15116;SDS011;7659;51.038;13.786;2022-08-19T07:38:23;13.70;;;13.20;;
15116;SDS011;7659;51.038;13.786;2022-08-19T07:40:49;13.68;;;13.18;;
15116;SDS011;7659;51.038;13.786;2022-08-19T07:43:16;13.30;;;12.80;;
15116;SDS011;7659;51.038;13.786;2022-08-19T07:45:47;13.48;;;12.98;;
15116;SDS011;7659;51.038;13.786;2022-08-19T07:48:13;13.82;;;13.32;;
15116;SDS011;7659;51.038;13.786;2022-08-19T07:50:39;14.20;;;13.70;;
15116;SDS011;7659;51.038;13.786;2022-08-19T07:53:05;14.38;;;13.88;;
15116;SDS011;7659;51.038;13.786;2022-08-19T07:55:30;13.55;;;13.05;;
15116;SDS011;7659;51.038;13.786;2022-08-19T07:57:56;12.98;;;12.48;;
15116;SDS011;7659;51.038;13.786;2022-08-19T08:00:21;13.07;;;12.57;;
15116;SDS011;7659;51.038;13.786;2022-08-19T08:02:47;14.70;;;14.20;;
15116;SDS011;7659;51.038;13.786;2022-08-19T08:05:12;14.45;;;13.95;;
15116;SDS011;7659;51.038;13.786;2022-08-19T08:07:56;14.60;;;14.10;;
15116;SDS011;7659;51.038;13.786;2022-08-19T08:10:40;14.07;;;13.57;;
15116;SDS011;7659;51.038;13.786;2022-08-19T08:13:06;13.88;;;13.38;;
15116;SDS011;7659;51.038;13.786;2022-08-19T08:15:32;14.00;;;13.50;;
15116;SDS011;7659;51.038;13.786;2022-08-19T08:17:57;14.43;;;13.93;;
15116;SDS011;7659;51.038;13.786;2022-08-19T08:20:23;13.98;;;13.48;;
15116;SDS011;7659;51.038;13.786;2022-08-19T08:22:49;14.75;;;14.25;;
15116;SDS011;7659;51.038;13.786;2022-08-19T08:25:34;14.07;;;13.57;;
15116;SDS011;7659;51.038;13.786;2022-08-19T08:28:00;13.90;;;13.40;;
15116;SDS011;7659;51.038;13.786;2022-08-19T08:30:26;13.20;;;12.70;;
15116;SDS011;7659;51.038;13.786;2022-08-19T08:32:52;13.80;;;13.30;;
15116;SDS011;7659;51.038;13.786;2022-08-19T08:35:19;13.85;;;13.35;;
15116;SDS011;7659;51.038;13.786;2022-08-19T08:37:46;13.80;;;13.30;;
15116;SDS011;7659;51.038;13.786;2022-08-19T08:40:26;14.07;;;13.57;;
15116;SDS011;7659;51.038;13.786;2022-08-19T08:45:42;14.40;;;13.90;;
15116;SDS011;7659;51.038;13.786;2022-08-19T08:48:14;13.52;;;13.02;;
15116;SDS011;7659;51.038;13.786;2022-08-19T08:50:42;13.65;;;13.15;;
15116;SDS011;7659;51.038;13.786;2022-08-19T08:53:08;13.40;;;12.90;;
15116;SDS011;7659;51.038;13.786;2022-08-19T08:55:34;13.60;;;13.10;;
15116;SDS011;7659;51.038;13.786;2022-08-19T08:58:06;14.93;;;14.43;;
15116;SDS011;7659;51.038;13.786;2022-08-19T09:00:36;14.70;;;14.20;;
15116;SDS011;7659;51.038;13.786;2022-08-19T09:03:03;14.98;;;14.48;;
15116;SDS011;7659;51.038;13.786;2022-08-19T09:05:37;14.20;;;13.70;;
15116;SDS011;7659;51.038;13.786;2022-08-19T09:08:13;13.13;;;12.63;;
15116;SDS011;7659;51.038;13.786;2022-08-19T09:10:46;12.27;;;11.77;;
15116;SDS011;7659;51.038;13.786;2022-08-19T09:13:18;13.55;;;13.05;;
15116;SDS011;7659;51.038;13.786;2022-08-19T09:15:48;11.73;;;11.32;;
15116;SDS011;7659;51.038;13.786;2022-08-19T09:18:14;11.70;;;11.30;;
15116;SDS011;7659;51.038;13.786;2022-08-19T09:20:41;12.25;;;11.75;;
15116;SDS011;7659;51.038;13.786;2022-08-19T09:23:07;11.90;;;11.50;;
15116;SDS011;7659;51.038;13.786;2022-08-19T09:25:33;11.00;;;10.60;;
15116;SDS011;7659;51.038;13.786;2022-08-19T09:27:59;10.70;;;10.30;;
15116;SDS011;7659;51.038;13.786;2022-08-19T09:30:28;11.63;;;11.23;;
15116;SDS011;7659;51.038;13.786;2022-08-19T09:32:54;11.60;;;11.20;;
15116;SDS011;7659;51.038;13.786;2022-08-19T09:35:20;11.38;;;10.98;;
15116;SDS011;7659;51.038;13.786;2022-08-19T09:37:47;11.43;;;11.02;;
15116;SDS011;7659;51.038;13.786;2022-08-19T09:40:14;10.98;;;10.57;;
15116;SDS011;7659;51.038;13.786;2022-08-19T09:42:40;10.52;;;10.13;;
15116;SDS011;7659;51.038;13.786;2022-08-19T09:45:08;11.15;;;10.75;;
15116;SDS011;7659;51.038;13.786;2022-08-19T09:47:34;10.60;;;10.20;;
15116;SDS011;7659;51.038;13.786;2022-08-19T09:50:06;10.70;;;10.30;;
15116;SDS011;7659;51.038;13.786;2022-08-19T09:52:32;10.35;;;9.95;;
15116;SDS011;7659;51.038;13.786;2022-08-19T09:54:58;10.60;;;10.20;;
15116;SDS011;7659;51.038;13.786;2022-08-19T09:57:24;10.23;;;9.82;;
15116;SDS011;7659;51.038;13.786;2022-08-19T09:59:49;10.65;;;10.25;;
15116;SDS011;7659;51.038;13.786;2022-08-19T10:02:15;10.40;;;10.00;;
15116;SDS011;7659;51.038;13.786;2022-08-19T10:04:40;10.40;;;10.00;;
15116;SDS011;7659;51.038;13.786;2022-08-19T10:07:24;9.15;;;8.75;;
15116;SDS011;7659;51.038;13.786;2022-08-19T10:09:50;6.53;;;6.22;;
15116;SDS011;7659;51.038;13.786;2022-08-19T10:12:15;6.22;;;5.93;;
15116;SDS011;7659;51.038;13.786;2022-08-19T10:14:41;4.05;;;3.85;;
15116;SDS011;7659;51.038;13.786;2022-08-19T10:17:07;0.40;;;0.40;;
15116;SDS011;7659;51.038;13.786;2022-08-19T10:19:33;0.30;;;0.30;;
15116;SDS011;7659;51.038;13.786;2022-08-19T10:22:05;0.68;;;0.68;;
15116;SDS011;7659;51.038;13.786;2022-08-19T10:24:30;0.25;;;0.25;;
15116;SDS011;7659;51.038;13.786;2022-08-19T10:26:56;0.20;;;0.20;;
15116;SDS011;7659;51.038;13.786;2022-08-19T10:29:22;0.30;;;0.30;;
15116;SDS011;7659;51.038;13.786;2022-08-19T10:31:47;0.30;;;0.30;;
15116;SDS011;7659;51.038;13.786;2022-08-19T10:34:13;0.20;;;0.20;;
15116;SDS011;7659;51.038;13.786;2022-08-19T10:36:38;0.30;;;0.30;;
15116;SDS011;7659;51.038;13.786;2022-08-19T10:39:08;0.32;;;0.32;;
15116;SDS011;7659;51.038;13.786;2022-08-19T10:41:35;0.30;;;0.30;;
15116;SDS011;7659;51.038;13.786;2022-08-19T10:44:03;0.30;;;0.30;;
15116;SDS011;7659;51.038;13.786;2022-08-19T10:46:29;0.30;;;0.30;;
15116;SDS011;7659;51.038;13.786;2022-08-19T10:48:58;0.30;;;0.30;;
15116;SDS011;7659;51.038;13.786;2022-08-19T10:51:24;0.30;;;0.30;;
15116;SDS011;7659;51.038;13.786;2022-08-19T10:54:19;0.30;;;0.30;;
15116;SDS011;7659;51.038;13.786;2022-08-19T10:56:44;0.30;;;0.30;;
15116;SDS011;7659;51.038;13.786;2022-08-19T10:59:17;0.30;;;0.30;;
15116;SDS011;7659;51.038;13.786;2022-08-19T11:01:43;0.30;;;0.30;;
15116;SDS011;7659;51.038;13.786;2022-08-19T11:04:08;0.30;;;0.30;;
15116;SDS011;7659;51.038;13.786;2022-08-19T11:06:42;0.20;;;0.20;;
15116;SDS011;7659;51.038;13.786;2022-08-19T11:09:08;0.30;;;0.30;;
15116;SDS011;7659;51.038;13.786;2022-08-19T11:11:34;0.30;;;0.30;;
15116;SDS011;7659;51.038;13.786;2022-08-19T11:14:09;0.30;;;0.30;;
15116;SDS011;7659;51.038;13.786;2022-08-19T11:16:36;0.30;;;0.30;;
15116;SDS011;7659;51.038;13.786;2022-08-19T11:19:03;0.30;;;0.30;;
15116;SDS011;7659;51.038;13.786;2022-08-19T11:21:30;0.30;;;0.30;;
15116;SDS011;7659;51.038;13.786;2022-08-19T11:23:58;0.20;;;0.20;;
15116;SDS011;7659;51.038;13.786;2022-08-19T11:26:24;0.30;;;0.30;;
15116;SDS011;7659;51.038;13.786;2022-08-19T11:28:50;0.30;;;0.30;;
15116;SDS011;7659;51.038;13.786;2022-08-19T11:31:19;0.25;;;0.25;;
15116;SDS011;7659;51.038;13.786;2022-08-19T11:33:45;0.30;;;0.30;;
15116;SDS011;7659;51.038;13.786;2022-08-19T11:36:11;0.20;;;0.20;;
15116;SDS011;7659;51.038;13.786;2022-08-19T11:38:37;0.20;;;0.20;;
15116;SDS011;7659;51.038;13.786;2022-08-19T11:41:04;0.20;;;0.20;;
15116;SDS011;7659;51.038;13.786;2022-08-19T11:43:31;0.30;;;0.30;;
15116;SDS011;7659;51.038;13.786;2022-08-19T11:45:56;0.30;;;0.30;;
15116;SDS011;7659;51.038;13.786;2022-08-19T11:48:22;0.20;;;0.20;;
15116;SDS011;7659;51.038;13.786;2022-08-19T11:50:49;0.20;;;0.20;;
15116;SDS011;7659;51.038;13.786;2022-08-19T11:53:15;0.30;;;0.30;;
15116;SDS011;7659;51.038;13.786;2022-08-19T11:55:40;0.30;;;0.30;;
15116;SDS011;7659;51.038;13.786;2022-08-19T11:58:07;0.30;;;0.30;;
15116;SDS011;7659;51.038;13.786;2022-08-19T12:00:33;0.30;;;0.30;;
15116;SDS011;7659;51.038;13.786;2022-08-19T12:03:01;0.20;;;0.20;;
15116;SDS011;7659;51.038;13.786;2022-08-19T12:05:26;0.30;;;0.30;;
15116;SDS011;7659;51.038;13.786;2022-08-19T12:07:52;0.22;;;0.22;;
15116;SDS011;7659;51.038;13.786;2022-08-19T12:10:19;0.20;;;0.20;;
15116;SDS011;7659;51.038;13.786;2022-08-19T12:12:45;0.30;;;0.30;;
15116;SDS011;7659;51.038;13.786;2022-08-19T12:15:11;0.20;;;0.20;;
15116;SDS011;7659;51.038;13.786;2022-08-19T12:17:37;0.20;;;0.20;;
15116;SDS011;7659;51.038;13.786;2022-08-19T12:20:03;0.30;;;0.30;;
15116;SDS011;7659;51.038;13.786;2022-08-19T12:22:29;0.30;;;0.30;;
15116;SDS011;7659;51.038;13.786;2022-08-19T12:24:55;0.20;;;0.20;;
15116;SDS011;7659;51.038;13.786;2022-08-19T12:27:20;0.20;;;0.20;;
15116;SDS011;7659;51.038;13.786;2022-08-19T12:29:46;0.20;;;0.20;;
15116;SDS011;7659;51.038;13.786;2022-08-19T12:32:11;0.20;;;0.20;;
15116;SDS011;7659;51.038;13.786;2022-08-19T12:34:37;0.20;;;0.20;;
15116;SDS011;7659;51.038;13.786;2022-08-19T12:37:03;0.20;;;0.20;;
15116;SDS011;7659;51.038;13.786;2022-08-19T12:39:30;0.20;;;0.20;;
15116;SDS011;7659;51.038;13.786;2022-08-19T12:41:58;0.30;;;0.30;;
15116;SDS011;7659;51.038;13.786;2022-08-19T12:44:24;0.20;;;0.20;;
15116;SDS011;7659;51.038;13.786;2022-08-19T12:46:49;0.20;;;0.20;;
15116;SDS011;7659;51.038;13.786;2022-08-19T12:49:15;0.20;;;0.20;;
15116;SDS011;7659;51.038;13.786;2022-08-19T12:51:40;0.30;;;0.30;;
15116;SDS011;7659;51.038;13.786;2022-08-19T12:54:06;0.30;;;0.30;;
15116;SDS011;7659;51.038;13.786;2022-08-19T12:56:32;0.20;;;0.20;;
15116;SDS011;7659;51.038;13.786;2022-08-19T12:59:00;0.20;;;0.20;;
15116;SDS011;7659;51.038;13.786;2022-08-19T13:01:26;0.20;;;0.20;;
15116;SDS011;7659;51.038;13.786;2022-08-19T13:03:52;0.20;;;0.20;;
15116;SDS011;7659;51.038;13.786;2022-08-19T13:06:18;0.20;;;0.20;;
15116;SDS011;7659;51.038;13.786;2022-08-19T13:08:43;0.20;;;0.20;;
15116;SDS011;7659;51.038;13.786;2022-08-19T13:11:10;0.20;;;0.20;;
15116;SDS011;7659;51.038;13.786;2022-08-19T13:13:37;0.20;;;0.20;;
15116;SDS011;7659;51.038;13.786;2022-08-19T13:16:06;0.25;;;0.25;;
15116;SDS011;7659;51.038;13.786;2022-08-19T13:18:32;0.20;;;0.20;;
15116;SDS011;7659;51.038;13.786;2022-08-19T13:21:01;0.22;;;0.22;;
15116;SDS011;7659;51.038;13.786;2022-08-19T13:23:28;0.30;;;0.30;;
15116;SDS011;7659;51.038;13.786;2022-08-19T13:25:58;0.30;;;0.30;;
15116;SDS011;7659;51.038;13.786;2022-08-19T13:28:23;0.30;;;0.30;;
15116;SDS011;7659;51.038;13.786;2022-08-19T13:30:49;0.25;;;0.25;;
15116;SDS011;7659;51.038;13.786;2022-08-19T13:33:33;0.20;;;0.20;;
15116;SDS011;7659;51.038;13.786;2022-08-19T13:35:59;0.25;;;0.25;;
15116;SDS011;7659;51.038;13.786;2022-08-19T13:38:26;0.30;;;0.30;;
15116;SDS011;7659;51.038;13.786;2022-08-19T13:40:52;0.20;;;0.20;;
15116;SDS011;7659;51.038;13.786;2022-08-19T13:43:19;0.30;;;0.30;;
15116;SDS011;7659;51.038;13.786;2022-08-19T13:45:47;0.20;;;0.20;;
15116;SDS011;7659;51.038;13.786;2022-08-19T13:48:12;0.30;;;0.30;;
15116;SDS011;7659;51.038;13.786;2022-08-19T13:50:40;0.20;;;0.20;;
15116;SDS011;7659;51.038;13.786;2022-08-19T13:53:06;0.25;;;0.25;;
15116;SDS011;7659;51.038;13.786;2022-08-19T13:55:32;0.30;;;0.30;;
15116;SDS011;7659;51.038;13.786;2022-08-19T13:57:59;0.20;;;0.20;;
15116;SDS011;7659;51.038;13.786;2022-08-19T14:00:26;0.20;;;0.20;;
15116;SDS011;7659;51.038;13.786;2022-08-19T14:02:52;0.20;;;0.20;;
15116;SDS011;7659;51.038;13.786;2022-08-19T14:05:19;0.20;;;0.20;;
15116;SDS011;7659;51.038;13.786;2022-08-19T14:07:44;0.20;;;0.20;;
15116;SDS011;7659;51.038;13.786;2022-08-19T14:10:11;0.20;;;0.20;;
15116;SDS011;7659;51.038;13.786;2022-08-19T14:12:37;0.25;;;0.25;;
15116;SDS011;7659;51.038;13.786;2022-08-19T14:15:03;0.20;;;0.20;;
15116;SDS011;7659;51.038;13.786;2022-08-19T14:17:29;0.20;;;0.20;;
15116;SDS011;7659;51.038;13.786;2022-08-19T14:19:59;0.20;;;0.20;;
15116;SDS011;7659;51.038;13.786;2022-08-19T14:22:37;0.20;;;0.20;;
15116;SDS011;7659;51.038;13.786;2022-08-19T14:25:07;0.20;;;0.20;;
15116;SDS011;7659;51.038;13.786;2022-08-19T14:27:33;0.20;;;0.20;;
15116;SDS011;7659;51.038;13.786;2022-08-19T14:29:59;0.20;;;0.20;;
15116;SDS011;7659;51.038;13.786;2022-08-19T14:32:24;0.30;;;0.30;;
15116;SDS011;7659;51.038;13.786;2022-08-19T14:34:52;0.20;;;0.20;;
15116;SDS011;7659;51.038;13.786;2022-08-19T14:37:18;0.20;;;0.20;;
15116;SDS011;7659;51.038;13.786;2022-08-19T14:39:44;0.20;;;0.20;;